EGQS - Lossiemouth
Distance from station: E 5mi, 14km
Updated: 12/15/2017 6:50pm
Mostly Cloudy
Mostly Cloudy
 Wind from W
Wind: W 10 mph , 17 km/h
Temperature: 37°F , 3°C
Wind Chill: 30°F , -1°C
Dew Point: 32°F , 0°C
Humidity: 81%
Barometer: 29.88 inHg , 1012 hPa
Clouds: Mostly Cloudy
Visibility: 6 miles , 10 km
Cloud details: Few Clouds 2000 ft
Partly Cloudy 3000 ft
Mostly Cloudy 4200 ft
2017/12/16 02:50 EGQS 160250Z 27009KT 9999 FEW020 SCT030 BKN042 03/00 Q1012 BLU